Terminal Aerodrome Forecast
Issued by NWS

Home | Current Version | Previous Version | Text Only | Print | Product List | Glossary On
Versions: 1 2 3 4 5 6 7 8 9 10 11 12 13 14 15 16 17 18
000
FTUS44 KEPZ 201700
TAFDMN
TAF
KDMN 201739Z 2018/2118 24005KT 6SM BR FEW010 FEW120
     FM201900 27008KT P6SM SCT050 SCT100
     FM202200 32005KT P6SM VCTS SCT050CB SCT100
     FM210400 28005KT P6SM SCT060 SCT250
     FM211500 05007KT P6SM SCT100 SCT250=

USA.gov is the U.S. government's official web portal to all federal, state and local government web resources and services.